Grand Lake, Colorado
Current Conditions -  °F | °C
As of 4:50 AM on Saturday 25 Oct 2014 (Local Time) from K0CO Reporting Station
Clear Clear  
Wind Chill: -4°   Ceiling: Unl
Heat Index:   Visibility: 10mi
Dew Point:   Wind: 15mph
Humidity: 93%   Direction: 290°WNW
Pressure: 30.65"   Gusts: 20mph
Location:  40.25°N, 105.82°W
Report Text: K0CO 251050Z AUTO 29013G17KT 10SM CLR 01/00 A3065 RMK AO2
Loading
Personal Weather Stations






























Interactive Weather Map
Tropical Storm Tracking
New forecast layout! Learn more

10-Day Weather Forecast

Advertisements
Track Severe Weather on mobile